Time;durP1;ratioP1;P1;durP2;ratioP2;P2;SDS_P1;SDS_P2;PMS_P1;PMS_P2;Temp;Humidity;BMP_temperature;BMP_pressure;BME280_temperature;BME280_humidity;BME280_pressure;Samples;Min_cycle;Max_cycle;Signal;HPM_P1;HPM_P2
2022/03/09 00:00:33;;;;;;;11.90;10.70;;;2.00;99.90;;;;;;4964094;28;20225;-74
2022/03/09 00:03:01;;;;;;;12.68;11.35;;;2.00;99.90;;;;;;4962807;28;20720;-76
2022/03/09 00:05:28;;;;;;;13.18;10.45;;;2.00;99.90;;;;;;4964946;28;20269;-76
2022/03/09 00:07:55;;;;;;;11.63;10.43;;;2.00;99.90;;;;;;4964468;28;20224;-75
2022/03/09 00:10:24;;;;;;;12.35;11.15;;;2.00;99.90;;;;;;4973430;28;20534;-76
2022/03/09 00:12:51;;;;;;;13.77;12.27;;;2.00;99.90;;;;;;4965419;28;20249;-76
2022/03/09 00:15:18;;;;;;;13.77;11.57;;;2.00;99.90;;;;;;4966945;28;20299;-76
2022/03/09 00:17:45;;;;;;;13.15;11.15;;;2.00;99.90;;;;;;4965221;28;20232;-74
2022/03/09 00:20:12;;;;;;;12.20;10.90;;;2.00;99.90;;;;;;4968874;28;20518;-76
2022/03/09 00:22:39;;;;;;;12.60;11.30;;;2.00;99.90;;;;;;4964632;28;20233;-77
2022/03/09 00:25:06;;;;;;;11.80;10.60;;;2.00;99.90;;;;;;4968922;28;20232;-77
2022/03/09 00:27:35;;;;;;;13.48;11.77;;;2.00;99.90;;;;;;4970532;28;20213;-76
2022/03/09 00:30:02;;;;;;;12.80;11.38;;;1.90;99.90;;;;;;4968031;28;20237;-76
2022/03/09 00:32:30;;;;;;;12.43;11.13;;;1.90;99.90;;;;;;4969935;28;20349;-76
2022/03/09 00:34:57;;;;;;;13.63;12.02;;;1.90;99.90;;;;;;4968722;28;20225;-76
2022/03/09 00:37:24;;;;;;;15.40;12.70;;;1.80;99.90;;;;;;4970616;28;20736;-76
2022/03/09 00:39:51;;;;;;;13.27;11.88;;;1.80;99.90;;;;;;4970794;28;20240;-77
2022/03/09 00:42:18;;;;;;;16.17;11.98;;;1.80;99.90;;;;;;4972950;28;20577;-77
2022/03/09 00:44:47;;;;;;;14.85;12.32;;;1.80;99.90;;;;;;4971261;28;20197;-74
2022/03/09 00:47:14;;;;;;;12.98;11.60;;;1.80;99.90;;;;;;4969447;28;20212;-76
2022/03/09 00:49:41;;;;;;;12.75;11.43;;;1.70;99.90;;;;;;4993256;23;20233;-75
2022/03/09 00:52:08;;;;;;;14.60;12.70;;;1.70;99.90;;;;;;4968973;28;20194;-74
2022/03/09 00:54:35;;;;;;;14.30;10.93;;;1.70;99.90;;;;;;4963581;28;20497;-75
2022/03/09 00:57:02;;;;;;;14.90;12.43;;;1.70;99.90;;;;;;4968940;28;20208;-77
2022/03/09 00:59:30;;;;;;;12.75;11.45;;;1.70;99.90;;;;;;4951601;28;20234;-76
2022/03/09 01:01:58;;;;;;;13.77;11.48;;;1.70;99.90;;;;;;4949582;28;20222;-76
2022/03/09 01:04:25;;;;;;;12.73;11.48;;;1.80;99.90;;;;;;4950025;28;20209;-76
2022/03/09 01:06:52;;;;;;;12.48;10.98;;;1.80;99.90;;;;;;4949062;28;20511;-75
2022/03/09 01:09:19;;;;;;;11.75;10.55;;;1.80;99.90;;;;;;4950170;28;20514;-74
2022/03/09 01:11:46;;;;;;;12.70;11.40;;;1.80;99.90;;;;;;4946737;28;20678;-76
2022/03/09 01:14:13;;;;;;;13.38;11.55;;;1.80;99.90;;;;;;4951479;28;20206;-75
2022/03/09 01:16:40;;;;;;;12.60;11.35;;;1.70;99.90;;;;;;4951998;28;20725;-75
2022/03/09 01:19:09;;;;;;;12.98;11.02;;;1.70;99.90;;;;;;4951456;28;20222;-76
2022/03/09 01:21:36;;;;;;;13.60;11.60;;;1.70;99.90;;;;;;4958269;28;20229;-76
2022/03/09 01:24:04;;;;;;;12.45;11.07;;;1.70;99.90;;;;;;4955628;28;20209;-76
2022/03/09 01:26:31;;;;;;;12.85;10.98;;;1.60;99.90;;;;;;4953025;28;20222;-77
2022/03/09 01:28:58;;;;;;;13.38;11.73;;;1.60;99.90;;;;;;4951392;28;20230;-75
2022/03/09 01:31:25;;;;;;;13.35;11.68;;;1.50;99.90;;;;;;4951241;28;20225;-76
2022/03/09 01:33:52;;;;;;;12.38;11.07;;;1.40;99.90;;;;;;4950291;28;20217;-75
2022/03/09 01:36:21;;;;;;;13.57;12.10;;;1.40;99.90;;;;;;4947820;28;20231;-75
2022/03/09 01:38:48;;;;;;;14.07;11.95;;;1.40;99.90;;;;;;4948737;28;20597;-76
2022/03/09 01:41:15;;;;;;;12.82;11.43;;;1.40;99.90;;;;;;4949238;28;20218;-77
2022/03/09 01:43:42;;;;;;;13.23;11.70;;;1.40;99.90;;;;;;4951465;28;20198;-75
2022/03/09 01:46:10;;;;;;;13.75;12.18;;;1.40;99.90;;;;;;4946631;28;20928;-75
2022/03/09 01:48:37;;;;;;;13.50;12.07;;;1.40;99.90;;;;;;4950820;28;20240;-74
2022/03/09 01:51:04;;;;;;;13.25;11.93;;;1.40;99.90;;;;;;4948238;28;20227;-74
2022/03/09 01:53:33;;;;;;;14.02;11.15;;;1.40;99.90;;;;;;4952212;28;20220;-74
2022/03/09 01:56:00;;;;;;;14.30;11.57;;;1.40;99.90;;;;;;4946366;28;20228;-74
2022/03/09 01:58:27;;;;;;;13.07;10.98;;;1.40;99.90;;;;;;4948517;28;20581;-74
2022/03/09 02:00:55;;;;;;;14.15;11.77;;;1.40;99.90;;;;;;4945471;28;20465;-74
2022/03/09 02:03:22;;;;;;;12.85;11.00;;;1.40;99.90;;;;;;4949599;28;20399;-74
2022/03/09 02:05:50;;;;;;;14.40;11.65;;;1.40;99.90;;;;;;4949137;28;20226;-75
2022/03/09 02:11:03;;;;;;;14.07;11.73;;;1.30;99.90;;;;;;4945704;28;20225;-75
2022/03/09 02:13:30;;;;;;;13.52;11.77;;;1.30;99.90;;;;;;4956691;28;20202;-77
2022/03/09 02:15:57;;;;;;;12.25;10.20;;;1.30;99.90;;;;;;4954889;28;20226;-76
2022/03/09 02:18:24;;;;;;;12.25;10.10;;;1.30;99.90;;;;;;4951873;28;20674;-75
2022/03/09 02:20:53;;;;;;;15.82;12.32;;;1.30;99.90;;;;;;4952142;28;20230;-74
2022/03/09 02:23:21;;;;;;;13.77;12.15;;;1.30;99.90;;;;;;4948416;28;20226;-75
2022/03/09 02:25:49;;;;;;;14.00;12.05;;;1.30;99.90;;;;;;4947324;28;20222;-74
2022/03/09 02:28:16;;;;;;;13.18;10.82;;;1.40;99.90;;;;;;4949400;28;20222;-75
2022/03/09 02:30:43;;;;;;;11.93;10.45;;;1.40;99.90;;;;;;4947296;28;20222;-75
2022/03/09 02:33:10;;;;;;;13.63;12.23;;;1.40;99.90;;;;;;4947850;28;20198;-75
2022/03/09 02:35:38;;;;;;;13.98;11.85;;;1.40;99.90;;;;;;4949749;28;20221;-76
2022/03/09 02:38:05;;;;;;;15.40;12.02;;;1.30;99.90;;;;;;4947389;28;20233;-75
2022/03/09 02:40:33;;;;;;;13.25;11.70;;;1.30;99.90;;;;;;4947525;28;20222;-73
2022/03/09 02:43:00;;;;;;;13.00;11.70;;;1.30;99.90;;;;;;4948105;28;21898;-75
2022/03/09 02:45:27;;;;;;;13.05;11.63;;;1.20;99.90;;;;;;4950917;28;20218;-75
2022/03/09 02:47:56;;;;;;;13.43;12.02;;;1.20;99.90;;;;;;4948182;28;20721;-75
2022/03/09 02:50:23;;;;;;;14.00;12.27;;;1.20;99.90;;;;;;4946697;28;20687;-76
2022/03/09 02:52:50;;;;;;;13.68;11.70;;;1.10;99.90;;;;;;4946172;28;20202;-76
2022/03/09 02:55:18;;;;;;;12.57;11.27;;;1.20;99.90;;;;;;4945721;28;20581;-77
2022/03/09 02:57:46;;;;;;;17.33;12.77;;;1.10;99.90;;;;;;4946923;28;20201;-74
2022/03/09 03:00:14;;;;;;;15.27;12.85;;;1.10;99.90;;;;;;4945861;28;20226;-76
2022/03/09 03:02:41;;;;;;;13.85;12.38;;;1.10;99.90;;;;;;4950292;28;20202;-77
2022/03/09 03:05:10;;;;;;;13.35;11.73;;;1.10;99.90;;;;;;4947090;28;20200;-75
2022/03/09 03:07:37;;;;;;;13.52;12.13;;;1.10;99.90;;;;;;4956669;28;20209;-76
2022/03/09 03:10:05;;;;;;;13.48;11.77;;;1.10;99.90;;;;;;4949978;28;20218;-76
2022/03/09 03:12:32;;;;;;;15.27;11.80;;;1.10;99.90;;;;;;4951225;28;20218;-75
2022/03/09 03:15:00;;;;;;;14.32;12.45;;;1.10;99.90;;;;;;4947413;28;20268;-76
2022/03/09 03:17:27;;;;;;;14.00;12.45;;;1.10;99.90;;;;;;4949082;28;20218;-76
2022/03/09 03:19:55;;;;;;;13.75;11.45;;;1.00;99.90;;;;;;4943744;28;20229;-76
2022/03/09 03:22:22;;;;;;;15.82;12.32;;;1.00;99.90;;;;;;4947596;28;20218;-74
2022/03/09 03:24:49;;;;;;;14.68;12.82;;;1.00;99.90;;;;;;4946004;28;20201;-77
2022/03/09 03:27:17;;;;;;;15.63;12.10;;;1.00;99.90;;;;;;4950000;28;20629;-75
2022/03/09 03:29:44;;;;;;;12.82;11.35;;;1.00;99.90;;;;;;4953812;28;20229;-76
2022/03/09 03:32:12;;;;;;;14.02;12.52;;;1.00;99.90;;;;;;4954200;28;20218;-76
2022/03/09 03:34:39;;;;;;;15.30;12.18;;;0.90;99.90;;;;;;4952407;28;20209;-76
2022/03/09 03:37:07;;;;;;;14.68;12.82;;;0.90;99.90;;;;;;4951133;28;20603;-75
2022/03/09 03:39:35;;;;;;;14.98;12.70;;;0.90;99.90;;;;;;4951785;28;20226;-76
2022/03/09 03:42:02;;;;;;;12.30;10.90;;;0.80;99.90;;;;;;4950990;28;20222;-75
2022/03/09 03:44:29;;;;;;;13.82;11.77;;;0.90;99.90;;;;;;4951462;28;20210;-75
2022/03/09 03:46:56;;;;;;;16.20;12.55;;;0.90;99.90;;;;;;4951352;28;20778;-75
2022/03/09 03:49:24;;;;;;;14.40;12.82;;;0.80;99.90;;;;;;4949394;28;20234;-75
2022/03/09 03:51:52;;;;;;;13.73;11.90;;;0.80;99.90;;;;;;4951568;28;20228;-76
2022/03/09 03:54:19;;;;;;;14.40;12.10;;;0.80;99.90;;;;;;4952773;28;20201;-75
2022/03/09 03:56:46;;;;;;;14.27;11.63;;;0.80;99.90;;;;;;4950683;28;20585;-76
2022/03/09 03:59:13;;;;;;;14.43;12.20;;;0.80;99.90;;;;;;4951399;28;20289;-76
2022/03/09 04:01:41;;;;;;;13.93;11.73;;;0.80;99.90;;;;;;4959577;28;20222;-76
2022/03/09 04:04:08;;;;;;;14.98;11.75;;;0.90;99.90;;;;;;4953719;28;20445;-76
2022/03/09 04:06:36;;;;;;;13.88;12.45;;;0.80;99.90;;;;;;4952923;28;20768;-76
2022/03/09 04:09:04;;;;;;;14.43;12.88;;;0.80;99.90;;;;;;4951635;28;20669;-76
2022/03/09 04:11:31;;;;;;;13.70;12.23;;;0.80;99.90;;;;;;4950218;28;20234;-76
2022/03/09 04:13:58;;;;;;;17.17;13.35;;;0.70;99.90;;;;;;4949872;28;20215;-75
2022/03/09 04:16:25;;;;;;;14.70;11.55;;;0.70;99.90;;;;;;4952213;28;20233;-76
2022/03/09 04:18:52;;;;;;;14.20;12.07;;;0.70;99.90;;;;;;4952668;28;20222;-76
2022/03/09 04:21:19;;;;;;;13.23;11.82;;;0.70;99.90;;;;;;4950348;28;20230;-76
2022/03/09 04:23:47;;;;;;;14.57;11.80;;;0.70;99.90;;;;;;4953352;28;20203;-76
2022/03/09 04:26:14;;;;;;;15.43;12.27;;;0.70;99.90;;;;;;4956461;28;20222;-75
2022/03/09 04:28:41;;;;;;;14.68;12.00;;;0.70;99.90;;;;;;4954462;28;20218;-76
2022/03/09 04:31:08;;;;;;;13.45;11.48;;;0.70;99.90;;;;;;4955036;28;20666;-75
2022/03/09 04:33:35;;;;;;;14.80;12.30;;;0.80;99.90;;;;;;4950475;28;20222;-76
2022/03/09 04:36:02;;;;;;;15.40;12.13;;;0.80;99.90;;;;;;4955239;28;20663;-75
2022/03/09 04:38:29;;;;;;;15.00;12.82;;;0.80;99.90;;;;;;4951585;28;20290;-75
2022/03/09 04:40:58;;;;;;;12.73;11.32;;;0.70;99.90;;;;;;4946827;28;20245;-76
2022/03/09 04:43:25;;;;;;;13.50;11.82;;;0.70;99.90;;;;;;4948783;28;20203;-76
2022/03/09 04:45:52;;;;;;;14.30;12.38;;;0.70;99.90;;;;;;4950207;28;20354;-75
2022/03/09 04:48:19;;;;;;;15.35;12.65;;;0.60;99.90;;;;;;4949375;28;20580;-74
2022/03/09 04:50:46;;;;;;;16.90;12.75;;;0.60;99.90;;;;;;4948968;28;20234;-75
2022/03/09 04:53:13;;;;;;;16.05;13.07;;;0.60;99.90;;;;;;4949540;28;20286;-75
2022/03/09 04:55:40;;;;;;;17.20;13.70;;;0.60;99.90;;;;;;4952512;28;20676;-76
2022/03/09 04:58:08;;;;;;;18.48;13.77;;;0.50;99.90;;;;;;4952066;28;20260;-75
2022/03/09 05:00:35;;;;;;;15.77;13.32;;;0.50;99.90;;;;;;4949583;28;20229;-76
2022/03/09 05:03:02;;;;;;;15.25;13.65;;;0.50;99.90;;;;;;4952259;28;20206;-75
2022/03/09 05:05:29;;;;;;;18.58;14.05;;;0.50;99.90;;;;;;4950194;28;20633;-75
2022/03/09 05:07:56;;;;;;;15.30;12.90;;;0.50;99.90;;;;;;4950334;28;20284;-76
2022/03/09 05:10:23;;;;;;;15.45;13.13;;;0.50;99.90;;;;;;4949889;28;20203;-75
2022/03/09 05:12:50;;;;;;;18.30;14.00;;;0.50;99.90;;;;;;4955205;28;20277;-76
2022/03/09 05:15:19;;;;;;;14.02;12.25;;;0.40;99.90;;;;;;4950963;28;20206;-75
2022/03/09 05:17:46;;;;;;;14.88;12.52;;;0.40;99.90;;;;;;4955913;28;21000;-75
2022/03/09 05:20:15;;;;;;;18.15;14.07;;;0.40;99.90;;;;;;4948250;28;20241;-76
2022/03/09 05:22:42;;;;;;;17.13;14.77;;;0.40;99.90;;;;;;4950737;28;20304;-76
2022/03/09 05:25:10;;;;;;;15.63;12.32;;;0.40;99.90;;;;;;4952582;28;20217;-77
2022/03/09 05:27:37;;;;;;;17.15;14.07;;;0.50;99.90;;;;;;4950357;28;20218;-76
2022/03/09 05:30:05;;;;;;;17.90;14.68;;;0.40;99.90;;;;;;4947592;28;20215;-76
2022/03/09 05:32:34;;;;;;;15.40;12.48;;;0.40;99.90;;;;;;4951310;28;20589;-76
2022/03/09 05:35:01;;;;;;;14.93;12.70;;;0.40;99.90;;;;;;4949169;28;20206;-76
2022/03/09 05:37:29;;;;;;;17.38;13.70;;;0.40;99.90;;;;;;4950067;28;20292;-76
2022/03/09 05:39:56;;;;;;;15.80;13.13;;;0.40;99.90;;;;;;4952009;28;20534;-75
2022/03/09 05:42:23;;;;;;;15.60;13.30;;;0.50;99.90;;;;;;4947551;28;20217;-76
2022/03/09 05:44:50;;;;;;;15.85;13.68;;;0.50;99.90;;;;;;4953674;28;20265;-75
2022/03/09 05:47:17;;;;;;;15.90;14.20;;;0.50;99.90;;;;;;4950524;28;20226;-76
2022/03/09 05:49:45;;;;;;;17.33;14.15;;;0.50;99.90;;;;;;4956541;28;20645;-75
2022/03/09 05:52:12;;;;;;;15.90;12.75;;;0.50;99.90;;;;;;4948471;28;20635;-75
2022/03/09 05:54:39;;;;;;;16.40;13.70;;;0.40;99.90;;;;;;4951176;28;20265;-76
2022/03/09 05:57:06;;;;;;;15.27;13.02;;;0.40;99.90;;;;;;4953417;28;20711;-76
2022/03/09 05:59:33;;;;;;;16.60;13.25;;;0.40;99.90;;;;;;4950767;28;20284;-76
2022/03/09 06:02:00;;;;;;;16.10;13.40;;;0.40;99.90;;;;;;4951376;28;20218;-76
2022/03/09 06:04:27;;;;;;;14.23;12.20;;;0.40;99.90;;;;;;4950304;28;20596;-76
2022/03/09 06:06:56;;;;;;;17.00;13.07;;;0.40;99.90;;;;;;4947973;28;20225;-76
2022/03/09 06:09:23;;;;;;;14.95;12.85;;;0.50;99.90;;;;;;4952738;28;20270;-75
2022/03/09 06:11:50;;;;;;;15.68;12.90;;;0.50;99.90;;;;;;4950750;28;20230;-76
2022/03/09 06:14:17;;;;;;;14.63;12.85;;;0.60;99.90;;;;;;4946065;28;20290;-76
2022/03/09 06:16:44;;;;;;;14.93;12.52;;;0.60;99.90;;;;;;4945920;28;20222;-74
2022/03/09 06:19:11;;;;;;;16.73;13.23;;;0.60;99.90;;;;;;4946702;28;20316;-75
2022/03/09 06:21:39;;;;;;;18.75;14.85;;;0.60;99.90;;;;;;4948340;28;20222;-77
2022/03/09 06:24:07;;;;;;;18.85;14.45;;;0.60;99.90;;;;;;4948012;28;20194;-75
2022/03/09 06:26:36;;;;;;;17.48;14.73;;;0.60;99.90;;;;;;4948527;28;20556;-76
2022/03/09 06:29:03;;;;;;;15.90;13.27;;;0.60;99.90;;;;;;4949530;28;20218;-75
2022/03/09 06:31:30;;;;;;;15.23;13.13;;;0.70;99.90;;;;;;4949950;28;20226;-75
2022/03/09 06:33:57;;;;;;;16.25;13.38;;;0.70;99.90;;;;;;4950563;28;20555;-75
2022/03/09 06:36:25;;;;;;;15.40;12.90;;;0.80;99.90;;;;;;4946889;28;20230;-75
2022/03/09 06:38:52;;;;;;;17.17;14.32;;;0.80;99.90;;;;;;4950004;28;20217;-75
2022/03/09 06:41:20;;;;;;;16.77;14.30;;;0.90;99.90;;;;;;4952679;28;20226;-75
2022/03/09 06:43:48;;;;;;;17.73;14.40;;;1.20;99.90;;;;;;4959563;28;20256;-75
2022/03/09 06:46:16;;;;;;;18.50;15.27;;;1.90;99.90;;;;;;4950447;28;20250;-76
2022/03/09 06:51:36;;;;;;;20.85;15.25;;;3.10;99.90;;;;;;5020597;23;21290;-79
2022/03/09 06:54:03;;;;;;;23.00;15.63;;;3.70;99.90;;;;;;4994148;28;20200;-80
2022/03/09 06:56:32;;;;;;;18.13;14.65;;;4.30;99.90;;;;;;4994930;28;20614;-79
2022/03/09 06:58:59;;;;;;;22.35;17.33;;;4.70;99.90;;;;;;4990746;28;20227;-78
2022/03/09 07:01:26;;;;;;;23.30;16.75;;;5.10;99.90;;;;;;5001918;28;20297;-83
2022/03/09 07:03:53;;;;;;;21.42;16.77;;;5.40;99.90;;;;;;4998210;28;20197;-76
2022/03/09 07:06:20;;;;;;;22.30;16.65;;;5.70;99.90;;;;;;5003530;28;20462;-79
2022/03/09 07:08:47;;;;;;;20.45;16.40;;;6.00;99.90;;;;;;5000856;28;20734;-80
2022/03/09 07:11:14;;;;;;;22.60;18.13;;;6.40;99.90;;;;;;5002394;28;20274;-76
2022/03/09 07:13:42;;;;;;;21.90;18.33;;;6.40;99.90;;;;;;4997809;28;20200;-77
2022/03/09 07:16:09;;;;;;;21.67;18.35;;;6.60;99.90;;;;;;4987094;28;20197;-76
2022/03/09 07:18:36;;;;;;;19.65;17.50;;;6.80;99.90;;;;;;4989064;28;20399;-80
2022/03/09 07:21:03;;;;;;;24.00;17.00;;;7.00;99.90;;;;;;4998445;28;20713;-77
2022/03/09 07:23:30;;;;;;;19.10;16.33;;;7.30;99.90;;;;;;4995280;28;20715;-76
2022/03/09 07:25:57;;;;;;;19.95;16.00;;;7.60;99.90;;;;;;4991329;28;20204;-76
2022/03/09 07:28:25;;;;;;;20.08;17.10;;;7.80;99.90;;;;;;4987661;28;20222;-74
2022/03/09 07:30:53;;;;;;;19.27;15.95;;;7.80;99.30;;;;;;4989438;28;20252;-75
2022/03/09 07:33:20;;;;;;;18.67;16.15;;;7.90;99.50;;;;;;5010251;28;20544;-74
2022/03/09 07:35:47;;;;;;;20.73;16.42;;;8.20;99.40;;;;;;4996103;28;20255;-73
2022/03/09 07:38:15;;;;;;;20.58;15.82;;;8.40;98.80;;;;;;4987479;28;20231;-76
2022/03/09 07:40:42;;;;;;;19.63;15.82;;;8.60;98.00;;;;;;4990584;28;20601;-76
2022/03/09 07:43:09;;;;;;;21.42;16.67;;;8.90;98.00;;;;;;4994179;28;20228;-74
2022/03/09 07:45:36;;;;;;;23.08;16.98;;;9.00;97.20;;;;;;4983202;28;20209;-73
2022/03/09 07:48:05;;;;;;;20.27;16.08;;;9.00;97.00;;;;;;4990193;28;20232;-74
2022/03/09 07:50:33;;;;;;;21.85;16.80;;;9.00;96.80;;;;;;4989698;28;20236;-73
2022/03/09 07:53:00;;;;;;;20.33;17.17;;;8.80;96.80;;;;;;4993268;28;20228;-74
2022/03/09 07:55:27;;;;;;;19.33;16.42;;;8.70;96.90;;;;;;4992447;28;20205;-77
2022/03/09 07:57:54;;;;;;;22.92;17.58;;;8.80;97.40;;;;;;4996105;28;20221;-73
2022/03/09 08:00:21;;;;;;;19.13;16.33;;;9.00;97.70;;;;;;4991012;28;20545;-75
2022/03/09 08:02:48;;;;;;;23.23;17.38;;;9.10;97.60;;;;;;4995832;28;20561;-75
2022/03/09 08:05:18;;;;;;;20.58;16.55;;;8.80;96.60;;;;;;4994681;28;20193;-74
2022/03/09 08:07:46;;;;;;;20.20;16.08;;;8.80;96.80;;;;;;4993986;28;20220;-75
2022/03/09 08:10:14;;;;;;;23.38;17.42;;;8.90;96.60;;;;;;4989741;28;20481;-75
2022/03/09 08:12:41;;;;;;;21.85;16.48;;;9.20;96.30;;;;;;4993901;28;20228;-75
2022/03/09 08:15:09;;;;;;;20.52;16.88;;;9.40;96.10;;;;;;4994538;28;20255;-78
2022/03/09 08:17:36;;;;;;;19.75;15.95;;;9.70;95.70;;;;;;4988350;28;20237;-76
2022/03/09 08:20:03;;;;;;;20.20;16.17;;;9.80;95.30;;;;;;4997942;28;20277;-74
2022/03/09 08:22:32;;;;;;;20.70;17.17;;;10.00;95.20;;;;;;4993095;28;20213;-76
2022/03/09 08:24:59;;;;;;;20.25;16.27;;;10.20;95.10;;;;;;4994689;28;20209;-74
2022/03/09 08:27:26;;;;;;;22.15;16.50;;;10.20;93.80;;;;;;4990498;28;20550;-76
2022/03/09 08:29:53;;;;;;;19.92;16.90;;;10.40;94.50;;;;;;4985657;28;20251;-74
2022/03/09 08:32:21;;;;;;;19.05;16.33;;;10.30;94.80;;;;;;4995962;28;20237;-76
2022/03/09 08:34:48;;;;;;;18.83;16.67;;;10.60;94.40;;;;;;4994933;28;20212;-73
2022/03/09 08:37:15;;;;;;;20.10;18.00;;;11.00;94.20;;;;;;4987798;28;20271;-76
2022/03/09 08:39:47;;;;;;;21.20;16.85;;;11.30;93.70;;;;;;4986626;28;20221;-75
2022/03/09 08:42:14;;;;;;;21.75;17.08;;;11.30;93.40;;;;;;4983799;28;20217;-76
2022/03/09 08:44:41;;;;;;;19.80;17.42;;;11.20;93.40;;;;;;4990263;28;20280;-72
2022/03/09 08:47:08;;;;;;;21.27;16.67;;;11.00;93.30;;;;;;4989236;28;20217;-77
2022/03/09 08:49:39;;;;;;;21.58;17.52;;;11.10;93.50;;;;;;4989379;28;20217;-73
2022/03/09 08:52:06;;;;;;;24.05;17.65;;;10.90;93.60;;;;;;4989595;28;20224;-77
2022/03/09 08:54:33;;;;;;;21.90;17.05;;;11.00;93.80;;;;;;4988819;28;20205;-74
2022/03/09 08:57:02;;;;;;;22.83;17.77;;;11.20;93.60;;;;;;4998359;28;20216;-74
2022/03/09 08:59:29;;;;;;;23.05;18.15;;;11.10;94.00;;;;;;4990319;28;20220;-74
2022/03/09 09:01:56;;;;;;;19.85;17.58;;;11.20;94.00;;;;;;4997981;28;20227;-75
2022/03/09 09:04:23;;;;;;;22.60;18.05;;;11.20;93.70;;;;;;4991341;28;20205;-72
2022/03/09 09:06:51;;;;;;;23.60;18.33;;;11.30;93.40;;;;;;4988940;28;20220;-77
2022/03/09 09:09:18;;;;;;;24.00;18.67;;;11.40;93.40;;;;;;4993666;28;20224;-75
2022/03/09 09:11:46;;;;;;;20.65;17.67;;;11.50;92.90;;;;;;4989686;28;20601;-74
2022/03/09 09:14:14;;;;;;;18.95;16.88;;;11.50;93.10;;;;;;4990305;28;20733;-74
2022/03/09 09:16:43;;;;;;;22.15;17.63;;;11.40;93.20;;;;;;4990226;28;20236;-74
2022/03/09 09:19:10;;;;;;;21.23;17.70;;;11.70;92.40;;;;;;4988782;28;20404;-74
2022/03/09 09:21:37;;;;;;;20.35;16.75;;;11.50;92.10;;;;;;4989827;28;20220;-76
2022/03/09 09:24:05;;;;;;;21.05;17.98;;;11.70;91.80;;;;;;4986092;28;20224;-74
2022/03/09 09:26:32;;;;;;;19.65;16.15;;;11.60;91.90;;;;;;4989745;28;20264;-77
2022/03/09 09:28:59;;;;;;;20.98;16.58;;;11.90;91.00;;;;;;4991817;28;20204;-74
2022/03/09 09:31:28;;;;;;;19.48;16.15;;;12.10;90.60;;;;;;4990318;28;20648;-75
2022/03/09 09:33:55;;;;;;;18.67;16.67;;;11.90;90.10;;;;;;4991374;28;20247;-75
2022/03/09 09:36:22;;;;;;;20.50;16.73;;;11.90;90.10;;;;;;4988723;28;20204;-75
2022/03/09 09:38:49;;;;;;;20.13;16.27;;;11.90;90.50;;;;;;4986851;28;20267;-75
2022/03/09 09:41:19;;;;;;;23.17;16.70;;;11.90;89.70;;;;;;4984299;28;21025;-76
2022/03/09 09:43:46;;;;;;;19.33;17.05;;;11.90;90.30;;;;;;4986818;28;20503;-74
2022/03/09 09:46:15;;;;;;;20.85;16.15;;;11.90;89.80;;;;;;4989245;28;20679;-77
2022/03/09 09:48:44;;;;;;;17.95;15.00;;;11.80;88.00;;;;;;4985282;28;20722;-74
2022/03/09 09:51:13;;;;;;;20.02;15.00;;;11.90;88.80;;;;;;4986782;28;20330;-75
2022/03/09 09:53:43;;;;;;;20.13;17.00;;;12.10;89.40;;;;;;4993059;28;20270;-75
2022/03/09 09:56:13;;;;;;;19.55;15.73;;;12.10;87.90;;;;;;4987918;28;20544;-74
2022/03/09 09:58:42;;;;;;;18.70;15.60;;;12.00;89.30;;;;;;4987810;28;20221;-75
2022/03/09 10:01:09;;;;;;;19.88;16.05;;;12.20;89.60;;;;;;4991020;28;20279;-74
2022/03/09 10:03:37;;;;;;;20.67;16.40;;;12.20;88.60;;;;;;4990826;28;20263;-75
2022/03/09 10:06:05;;;;;;;21.50;17.10;;;12.40;89.90;;;;;;4995075;28;20209;-75
2022/03/09 10:08:32;;;;;;;20.27;16.98;;;12.40;89.00;;;;;;4996794;28;20638;-74
2022/03/09 10:11:01;;;;;;;17.70;15.45;;;12.60;88.30;;;;;;4993719;28;20224;-76
2022/03/09 10:13:29;;;;;;;19.77;16.17;;;12.60;89.70;;;;;;4987468;28;20221;-74
2022/03/09 10:16:15;;;;;;;21.45;17.60;;;12.60;87.40;;;;;;4997164;28;20208;-74
2022/03/09 10:18:49;;;;;;;19.45;15.20;;;12.60;87.90;;;;;;4994306;28;20220;-75
2022/03/09 10:21:21;;;;;;;20.83;16.90;;;12.60;87.50;;;;;;4993042;28;20814;-73
2022/03/09 10:23:56;;;;;;;21.50;17.25;;;12.60;87.90;;;;;;4987933;28;20443;-74
2022/03/09 10:26:28;;;;;;;21.20;17.17;;;12.40;86.80;;;;;;4983038;28;20188;-75
2022/03/09 10:28:57;;;;;;;23.35;16.70;;;12.60;87.50;;;;;;4987377;28;20224;-75
2022/03/09 10:31:39;;;;;;;22.80;18.98;;;12.60;87.50;;;;;;4990459;28;20197;-74
2022/03/09 10:34:13;;;;;;;19.85;16.83;;;12.70;87.10;;;;;;4984489;28;20235;-75
2022/03/09 10:36:55;;;;;;;21.63;16.08;;;12.90;89.60;;;;;;4983782;28;20193;-75
2022/03/09 10:39:23;;;;;;;18.83;16.27;;;13.40;88.50;;;;;;4980586;28;20248;-75
2022/03/09 10:41:50;;;;;;;19.77;16.15;;;13.60;86.30;;;;;;4992296;28;20220;-75
2022/03/09 10:44:18;;;;;;;21.38;16.05;;;13.40;85.00;;;;;;4987041;28;20240;-74
2022/03/09 10:46:47;;;;;;;19.00;16.10;;;13.30;83.90;;;;;;4987837;28;20256;-74
2022/03/09 10:49:16;;;;;;;21.15;17.38;;;13.20;85.40;;;;;;4990436;28;20312;-74
2022/03/09 10:51:47;;;;;;;21.92;17.95;;;13.40;85.70;;;;;;4990493;28;20225;-76
2022/03/09 10:54:22;;;;;;;20.85;17.48;;;13.40;84.00;;;;;;4980841;28;20224;-76
2022/03/09 10:56:50;;;;;;;20.83;17.88;;;13.30;84.20;;;;;;4985083;28;20586;-77
2022/03/09 10:59:19;;;;;;;21.05;17.60;;;13.40;82.20;;;;;;4987711;28;20315;-76
2022/03/09 11:02:07;;;;;;;21.77;17.77;;;13.30;82.60;;;;;;4977274;28;20225;-77
2022/03/09 11:04:35;;;;;;;20.55;17.30;;;13.20;82.70;;;;;;4988788;28;20584;-75
2022/03/09 11:07:09;;;;;;;19.50;16.55;;;13.30;82.30;;;;;;4977618;28;20204;-77
2022/03/09 11:09:37;;;;;;;19.83;16.27;;;13.50;82.70;;;;;;4982312;28;20232;-74
2022/03/09 11:12:05;;;;;;;22.02;17.25;;;13.70;81.90;;;;;;4978951;28;20269;-76
2022/03/09 11:14:33;;;;;;;19.92;15.70;;;14.00;82.50;;;;;;4981624;28;20350;-76
2022/03/09 11:17:00;;;;;;;21.38;17.50;;;14.20;82.00;;;;;;4975988;28;20235;-76
2022/03/09 11:19:28;;;;;;;20.85;16.35;;;14.20;81.80;;;;;;4983593;28;20230;-77
2022/03/09 11:21:55;;;;;;;21.00;17.13;;;14.40;80.80;;;;;;4986007;28;20225;-77
2022/03/09 11:24:25;;;;;;;20.08;15.82;;;14.30;80.50;;;;;;4983954;28;20583;-76
2022/03/09 11:26:57;;;;;;;20.83;17.08;;;14.10;81.50;;;;;;4985571;28;20664;-76
2022/03/09 11:29:33;;;;;;;20.60;16.48;;;14.40;80.60;;;;;;4994249;28;20248;-75
2022/03/09 11:32:01;;;;;;;19.73;16.88;;;14.20;80.70;;;;;;4993549;28;20306;-74
2022/03/09 11:34:41;;;;;;;18.85;16.33;;;14.20;81.10;;;;;;4965459;28;20233;-75
2022/03/09 11:37:10;;;;;;;21.55;17.67;;;13.80;79.60;;;;;;4969661;28;20561;-74
2022/03/09 11:39:40;;;;;;;22.00;16.95;;;13.50;80.90;;;;;;4968657;28;20234;-76
2022/03/09 11:42:33;;;;;;;21.35;16.27;;;13.40;79.20;;;;;;4970520;28;20221;-75
2022/03/09 11:45:33;;;;;;;17.85;15.95;;;13.40;79.20;;;;;;4978615;28;20225;-79
2022/03/09 11:48:04;;;;;;;18.75;15.73;;;13.50;78.80;;;;;;4917925;29;20211;-75
2022/03/09 11:50:34;;;;;;;17.83;14.95;;;13.60;78.60;;;;;;4970230;28;20229;-73
2022/03/09 11:53:04;;;;;;;18.38;14.80;;;13.60;77.70;;;;;;4972974;28;20280;-76
2022/03/09 11:55:33;;;;;;;22.70;17.35;;;13.70;76.10;;;;;;4969024;28;20214;-75
2022/03/09 11:58:11;;;;;;;30.27;21.70;;;13.70;76.30;;;;;;4979180;28;20201;-76
2022/03/09 12:00:40;;;;;;;48.78;33.83;;;13.60;74.80;;;;;;4969971;28;20217;-75
2022/03/09 12:03:07;;;;;;;27.92;19.85;;;13.80;79.40;;;;;;4969823;28;20568;-74
2022/03/09 12:05:37;;;;;;;32.80;21.73;;;14.10;75.90;;;;;;4963167;28;21115;-73
2022/03/09 12:08:05;;;;;;;29.33;21.00;;;14.50;77.30;;;;;;4968517;28;20202;-74
2022/03/09 12:10:51;;;;;;;19.52;15.10;;;15.20;78.00;;;;;;4972257;28;20229;-74
2022/03/09 12:13:33;;;;;;;19.33;16.00;;;15.10;74.20;;;;;;4973101;28;20673;-74
2022/03/09 12:16:05;;;;;;;16.70;13.95;;;15.20;73.80;;;;;;4969250;28;20679;-73
2022/03/09 12:18:37;;;;;;;18.77;13.25;;;15.00;73.50;;;;;;4972911;28;20193;-73
2022/03/09 12:21:05;;;;;;;21.50;14.00;;;14.80;72.90;;;;;;4968487;28;20298;-76
2022/03/09 12:23:33;;;;;;;18.05;13.20;;;14.70;74.90;;;;;;4973951;28;20209;-75
2022/03/09 12:26:02;;;;;;;18.63;13.88;;;14.90;74.30;;;;;;4967329;28;20234;-75
2022/03/09 12:28:45;;;;;;;20.50;13.95;;;14.70;73.90;;;;;;4977840;28;20232;-74
2022/03/09 12:31:23;;;;;;;19.52;15.15;;;14.80;73.10;;;;;;4965777;28;20228;-75
2022/03/09 12:33:54;;;;;;;18.08;15.07;;;14.80;74.60;;;;;;4968155;28;20896;-75
2022/03/09 12:36:23;;;;;;;18.30;15.77;;;14.70;75.20;;;;;;4969190;28;20234;-74
2022/03/09 12:38:52;;;;;;;22.00;16.15;;;14.40;74.90;;;;;;4967939;28;20208;-77
2022/03/09 12:41:29;;;;;;;19.33;16.75;;;14.30;76.40;;;;;;4970173;28;20280;-75
2022/03/09 12:43:58;;;;;;;21.67;16.40;;;14.20;76.40;;;;;;4976359;28;20202;-73